createdAt,value
2022-11-25T00:01:33.965Z,3.58
2022-11-25T00:04:02.013Z,3.78
2022-11-25T00:06:32.748Z,3.85
2022-11-25T00:09:04.925Z,3.90
2022-11-25T00:11:36.023Z,4.85
2022-11-25T00:14:04.790Z,3.80
2022-11-25T00:16:32.396Z,4.72
2022-11-25T00:19:00.165Z,3.85
2022-11-25T00:21:31.705Z,3.95
2022-11-25T00:24:04.846Z,3.78
2022-11-25T00:26:33.981Z,3.22
2022-11-25T00:29:07.072Z,3.05
2022-11-25T00:31:38.393Z,3.80
2022-11-25T00:34:07.384Z,3.90
2022-11-25T00:36:36.981Z,3.70
2022-11-25T00:39:07.673Z,3.45
2022-11-25T00:41:53.751Z,3.78
2022-11-25T00:44:38.449Z,3.85
2022-11-25T00:47:14.266Z,3.80
2022-11-25T00:49:45.916Z,3.55
2022-11-25T00:52:25.274Z,3.80
2022-11-25T00:54:53.896Z,3.92
2022-11-25T00:57:23.540Z,3.53
2022-11-25T00:59:51.433Z,3.67
2022-11-25T01:02:22.019Z,3.50
2022-11-25T01:04:49.892Z,3.90
2022-11-25T01:07:18.374Z,3.55
2022-11-25T01:09:46.071Z,3.22
2022-11-25T01:12:13.601Z,3.38
2022-11-25T01:14:41.503Z,3.45
2022-11-25T01:17:09.001Z,3.28
2022-11-25T01:19:40.642Z,3.17
2022-11-25T01:22:09.630Z,3.83
2022-11-25T01:24:37.270Z,3.38
2022-11-25T01:27:05.169Z,3.60
2022-11-25T01:29:32.597Z,3.20
2022-11-25T01:32:00.223Z,3.05
2022-11-25T01:34:28.710Z,3.03
2022-11-25T01:36:58.287Z,2.47
2022-11-25T01:39:31.952Z,2.97
2022-11-25T01:42:00.788Z,2.65
2022-11-25T01:44:33.245Z,3.00
2022-11-25T01:47:24.597Z,2.92
2022-11-25T01:50:03.830Z,2.92
2022-11-25T01:52:39.842Z,2.47
2022-11-25T01:55:14.097Z,2.90
2022-11-25T01:57:50.869Z,2.45
2022-11-25T02:00:18.968Z,3.22
2022-11-25T02:02:50.374Z,3.35
2022-11-25T02:05:22.368Z,3.30
2022-11-25T02:07:53.313Z,2.67
2022-11-25T02:10:30.888Z,2.45
2022-11-25T02:12:59.653Z,3.00
2022-11-25T02:15:29.483Z,2.95
2022-11-25T02:17:57.508Z,2.40
2022-11-25T02:20:26.537Z,3.38
2022-11-25T02:23:18.131Z,3.45
2022-11-25T02:25:47.305Z,2.60
2022-11-25T02:28:24.120Z,3.20
2022-11-25T02:30:52.195Z,3.30
2022-11-25T02:33:20.791Z,2.95
2022-11-25T02:35:52.680Z,3.20
2022-11-25T02:38:51.371Z,3.00
2022-11-25T02:41:42.308Z,2.10
2022-11-25T02:44:10.046Z,2.70
2022-11-25T02:46:39.688Z,3.00
2022-11-25T02:49:09.218Z,2.55
2022-11-25T02:51:39.392Z,2.33
2022-11-25T02:54:06.960Z,2.92
2022-11-25T02:56:35.873Z,2.58
2022-11-25T02:59:04.247Z,2.78
2022-11-25T03:01:32.985Z,2.55
2022-11-25T03:04:00.601Z,2.20
2022-11-25T03:06:29.869Z,2.58
2022-11-25T03:08:58.137Z,2.30
2022-11-25T03:11:47.421Z,2.70
2022-11-25T03:14:16.187Z,2.80
2022-11-25T03:16:44.175Z,2.10
2022-11-25T03:19:12.177Z,2.55
2022-11-25T03:21:39.662Z,2.15
2022-11-25T03:24:08.071Z,2.10
2022-11-25T03:26:35.537Z,2.53
2022-11-25T03:29:03.017Z,2.45
2022-11-25T03:31:30.660Z,2.25
2022-11-25T03:33:58.192Z,2.38
2022-11-25T03:36:25.710Z,2.58
2022-11-25T03:38:53.186Z,1.80
2022-11-25T03:41:20.706Z,2.10
2022-11-25T03:43:49.098Z,2.40
2022-11-25T03:46:16.796Z,2.20
2022-11-25T03:48:44.508Z,2.20
2022-11-25T03:51:12.339Z,2.10
2022-11-25T03:53:39.961Z,1.88
2022-11-25T03:56:09.971Z,2.65
2022-11-25T03:58:37.554Z,1.75
2022-11-25T04:01:06.741Z,2.08
2022-11-25T04:03:34.650Z,2.10
2022-11-25T04:06:02.085Z,1.85
2022-11-25T04:08:31.091Z,1.80
2022-11-25T04:10:59.610Z,1.90
2022-11-25T04:13:30.753Z,2.00
2022-11-25T04:15:58.472Z,1.95
2022-11-25T04:18:26.771Z,2.00
2022-11-25T04:20:57.132Z,2.25
2022-11-25T04:23:24.721Z,2.00
2022-11-25T04:26:02.500Z,2.08
2022-11-25T04:28:41.188Z,2.08
2022-11-25T04:31:09.174Z,2.20
2022-11-25T04:33:39.832Z,2.13
2022-11-25T04:36:08.288Z,2.17
2022-11-25T04:38:36.031Z,2.38
2022-11-25T04:41:04.723Z,2.60
2022-11-25T04:43:37.641Z,2.87
2022-11-25T04:46:17.742Z,2.03
2022-11-25T04:48:49.612Z,2.38
2022-11-25T04:51:17.811Z,3.05
2022-11-25T04:53:47.521Z,2.60
2022-11-25T04:56:22.212Z,1.90
2022-11-25T04:59:11.518Z,2.47
2022-11-25T05:01:46.638Z,2.30
2022-11-25T05:04:30.170Z,2.25
2022-11-25T05:06:58.161Z,1.95
2022-11-25T05:09:26.302Z,1.98
2022-11-25T05:12:06.421Z,2.22
2022-11-25T05:14:35.901Z,2.15
2022-11-25T05:17:05.110Z,2.08
2022-11-25T05:19:33.351Z,1.92
2022-11-25T05:22:00.903Z,2.10
2022-11-25T05:24:28.575Z,1.75
2022-11-25T05:26:56.528Z,1.73
2022-11-25T05:29:24.182Z,1.95
2022-11-25T05:31:51.713Z,1.80
2022-11-25T05:34:19.533Z,1.90
2022-11-25T05:36:48.571Z,2.08
2022-11-25T05:39:16.259Z,2.17
2022-11-25T05:42:09.708Z,1.90
2022-11-25T05:44:39.838Z,1.60
2022-11-25T05:47:09.241Z,1.60
2022-11-25T05:49:36.892Z,1.95
2022-11-25T05:52:04.395Z,1.60
2022-11-25T05:54:37.644Z,2.50
2022-11-25T05:57:05.431Z,2.17
2022-11-25T05:59:40.843Z,1.70
2022-11-25T06:02:19.165Z,1.98
2022-11-25T06:04:46.932Z,2.40
2022-11-25T06:07:14.681Z,1.83
2022-11-25T06:09:42.603Z,2.05
2022-11-25T06:12:11.335Z,2.10
2022-11-25T06:14:45.883Z,1.70
2022-11-25T06:17:13.604Z,1.50
2022-11-25T06:20:08.871Z,1.38
2022-11-25T06:22:36.722Z,1.65
2022-11-25T06:25:04.916Z,1.67
2022-11-25T06:27:57.252Z,1.60
2022-11-25T06:30:23.879Z,1.50
2022-11-25T06:33:05.172Z,2.05
2022-11-25T06:35:33.594Z,1.33
2022-11-25T06:38:03.049Z,1.33
2022-11-25T06:40:30.581Z,1.70
2022-11-25T06:42:58.083Z,1.30
2022-11-25T06:45:25.602Z,1.52
2022-11-25T06:47:53.780Z,1.70
2022-11-25T06:50:21.362Z,2.05
2022-11-25T06:52:48.904Z,2.00
2022-11-25T06:55:16.431Z,1.70
2022-11-25T06:57:44.031Z,2.15
2022-11-25T07:00:11.880Z,1.80
2022-11-25T07:02:44.074Z,1.50
2022-11-25T07:05:12.872Z,1.35
2022-11-25T07:07:40.393Z,1.33
2022-11-25T07:10:08.603Z,1.63
2022-11-25T07:12:36.193Z,1.20
2022-11-25T07:15:04.082Z,1.30
2022-11-25T07:17:32.518Z,1.10
2022-11-25T07:19:59.963Z,1.30
2022-11-25T07:22:27.464Z,1.10
2022-11-25T07:24:55.082Z,1.30
2022-11-25T07:27:22.479Z,1.33
2022-11-25T07:30:10.113Z,0.90
2022-11-25T07:32:37.688Z,1.30
2022-11-25T07:35:05.660Z,1.48
2022-11-25T07:37:33.154Z,1.15
2022-11-25T07:40:00.657Z,1.38
2022-11-25T07:42:28.113Z,1.48
2022-11-25T07:44:55.704Z,1.80
2022-11-25T07:47:44.893Z,1.92
2022-11-25T07:50:12.362Z,1.17
2022-11-25T07:52:40.715Z,1.20
2022-11-25T07:55:08.843Z,1.25
2022-11-25T07:57:36.373Z,1.30
2022-11-25T08:00:05.138Z,1.40
2022-11-25T08:02:39.318Z,1.02
2022-11-25T08:05:07.434Z,1.35
2022-11-25T08:07:36.672Z,1.00
2022-11-25T08:10:04.803Z,1.20
2022-11-25T08:12:33.433Z,1.40
2022-11-25T08:15:00.941Z,1.60
2022-11-25T08:17:28.663Z,1.27
2022-11-25T08:19:56.354Z,1.10
2022-11-25T08:22:23.854Z,1.60
2022-11-25T08:24:51.424Z,1.58
2022-11-25T08:27:18.956Z,1.48
2022-11-25T08:29:46.582Z,1.80
2022-11-25T08:32:14.160Z,1.80
2022-11-25T08:34:43.144Z,1.42
2022-11-25T08:37:12.183Z,1.50
2022-11-25T08:39:55.318Z,1.13
2022-11-25T08:42:23.259Z,1.73
2022-11-25T08:44:55.945Z,1.30
2022-11-25T08:47:24.343Z,1.58
2022-11-25T08:49:55.364Z,1.45
2022-11-25T08:52:23.841Z,1.50
2022-11-25T08:54:51.314Z,1.50
2022-11-25T08:57:18.834Z,1.98
2022-11-25T08:59:46.620Z,1.95
2022-11-25T09:02:16.729Z,1.60
2022-11-25T09:04:44.838Z,2.47
2022-11-25T09:07:12.526Z,1.77
2022-11-25T09:09:40.260Z,1.55
2022-11-25T09:12:08.523Z,1.70
2022-11-25T09:14:36.121Z,1.90
2022-11-25T09:17:09.163Z,1.95
2022-11-25T09:19:36.998Z,2.63
2022-11-25T09:22:04.664Z,2.20
2022-11-25T09:24:32.205Z,1.75
2022-11-25T09:26:59.839Z,2.10
2022-11-25T09:29:27.976Z,1.48
2022-11-25T09:31:55.876Z,1.92
2022-11-25T09:34:23.463Z,1.90
2022-11-25T09:36:51.713Z,2.20
2022-11-25T09:39:19.336Z,2.05
2022-11-25T09:42:14.661Z,2.35
2022-11-25T09:45:36.917Z,2.13
2022-11-25T09:48:39.493Z,1.63
2022-11-25T09:51:12.966Z,1.75
2022-11-25T09:53:45.446Z,1.95
2022-11-25T09:56:28.312Z,3.13
2022-11-25T09:59:14.653Z,2.65
2022-11-25T10:01:50.860Z,2.97
2022-11-25T10:04:29.298Z,2.13
2022-11-25T10:07:02.903Z,1.60
2022-11-25T10:09:34.291Z,2.15
2022-11-25T10:12:11.339Z,1.80
2022-11-25T10:14:50.515Z,1.95
2022-11-25T10:17:38.529Z,1.88
2022-11-25T10:20:26.393Z,1.80
2022-11-25T10:23:02.084Z,2.15
2022-11-25T10:25:45.890Z,1.73
2022-11-25T10:28:21.394Z,1.83
2022-11-25T10:31:12.187Z,1.88
2022-11-25T10:33:45.181Z,1.45
2022-11-25T10:36:38.673Z,1.80
2022-11-25T10:39:29.343Z,2.03
2022-11-25T10:42:06.453Z,1.52
2022-11-25T10:44:37.190Z,1.70
2022-11-25T10:47:32.431Z,1.63
2022-11-25T10:50:16.073Z,1.92
2022-11-25T10:53:14.052Z,1.70
2022-11-25T10:56:03.761Z,1.83
2022-11-25T10:58:39.762Z,2.22
2022-11-25T11:01:18.178Z,2.15
2022-11-25T11:03:51.401Z,3.25
2022-11-25T11:06:40.028Z,3.45
2022-11-25T11:09:38.092Z,3.00
2022-11-25T11:12:26.062Z,2.25
2022-11-25T11:15:13.963Z,2.33
2022-11-25T11:17:41.676Z,2.60
2022-11-25T11:20:09.324Z,1.30
2022-11-25T11:22:45.683Z,1.75
2022-11-25T11:25:23.576Z,1.63
2022-11-25T11:27:51.359Z,2.28
2022-11-25T11:30:21.870Z,1.83
2022-11-25T11:32:59.579Z,1.75
2022-11-25T11:36:07.133Z,2.25
2022-11-25T11:39:15.999Z,2.00
2022-11-25T11:42:03.983Z,1.50
2022-11-25T11:44:53.162Z,1.83
2022-11-25T11:47:29.798Z,1.60
2022-11-25T11:49:57.314Z,1.58
2022-11-25T11:52:45.768Z,1.55
2022-11-25T11:55:22.382Z,1.85
2022-11-25T11:58:20.209Z,1.67
2022-11-25T12:01:05.853Z,1.30
2022-11-25T12:03:42.280Z,5.60
2022-11-25T12:06:12.443Z,5.47
2022-11-25T12:08:50.692Z,3.47
2022-11-25T12:11:25.624Z,1.90
2022-11-25T12:14:14.864Z,2.20
2022-11-25T12:16:53.211Z,1.60
2022-11-25T12:19:53.330Z,1.65
2022-11-25T12:22:41.068Z,3.97
2022-11-25T12:25:34.521Z,5.38
2022-11-25T12:28:13.222Z,6.13
2022-11-25T12:31:05.376Z,5.70
2022-11-25T12:33:57.044Z,6.43
2022-11-25T12:36:34.292Z,7.32
2022-11-25T12:39:20.167Z,8.30
2022-11-25T12:41:53.740Z,8.20
2022-11-25T12:44:27.432Z,7.72
2022-11-25T12:46:57.112Z,7.60
2022-11-25T12:49:46.984Z,9.38
2022-11-25T12:52:17.683Z,8.43
2022-11-25T12:54:56.913Z,8.77
2022-11-25T12:57:36.598Z,9.05
2022-11-25T13:00:43.549Z,9.85
2022-11-25T13:03:39.137Z,10.02
2022-11-25T13:06:45.584Z,10.90
2022-11-25T13:09:34.259Z,11.23
2022-11-25T13:12:38.772Z,10.98
2022-11-25T13:17:40.569Z,8.95
2022-11-25T13:23:07.929Z,10.93
2022-11-25T13:25:38.470Z,10.20
2022-11-25T13:28:29.561Z,11.05
2022-11-25T13:31:19.407Z,11.52
2022-11-25T13:33:47.177Z,12.45
2022-11-25T13:36:22.149Z,13.48
2022-11-25T13:38:49.687Z,13.60
2022-11-25T13:41:19.963Z,13.70
2022-11-25T13:44:19.083Z,13.30
2022-11-25T13:46:52.971Z,13.60
2022-11-25T13:51:58.445Z,11.68
2022-11-25T13:54:33.762Z,11.60
2022-11-25T13:57:19.014Z,12.50
2022-11-25T13:59:46.472Z,11.50
2022-11-25T14:02:45.420Z,12.23
2022-11-25T14:05:28.712Z,11.07
2022-11-25T14:08:27.486Z,11.30
2022-11-25T14:11:10.202Z,10.63
2022-11-25T14:14:05.710Z,10.63
2022-11-25T14:16:42.383Z,11.02
2022-11-25T14:19:43.256Z,9.43
2022-11-25T14:22:11.113Z,8.90
2022-11-25T14:25:26.804Z,8.63
2022-11-25T14:28:09.122Z,8.45
2022-11-25T14:30:50.205Z,8.27
2022-11-25T14:33:34.812Z,8.60
2022-11-25T14:36:17.762Z,8.60
2022-11-25T14:38:59.913Z,8.75
2022-11-25T14:41:38.374Z,7.63
2022-11-25T14:44:12.897Z,7.60
2022-11-25T14:47:03.862Z,7.38
2022-11-25T14:49:55.335Z,7.55
2022-11-25T14:52:36.011Z,8.30
2022-11-25T14:55:06.109Z,7.32
2022-11-25T14:57:37.741Z,7.43
2022-11-25T15:00:09.923Z,7.85
2022-11-25T15:02:41.007Z,8.38
2022-11-25T15:05:08.481Z,8.27
2022-11-25T15:07:36.250Z,8.55
2022-11-25T15:10:04.113Z,9.38
2022-11-25T15:12:33.404Z,9.55
2022-11-25T15:15:01.386Z,9.65
2022-11-25T15:17:35.319Z,9.13
2022-11-25T15:20:12.622Z,8.75
2022-11-25T15:22:46.407Z,11.00
2022-11-25T15:27:50.507Z,14.25
2022-11-25T15:30:26.743Z,12.25
2022-11-25T15:32:55.394Z,11.05
2022-11-25T15:35:25.259Z,12.25
2022-11-25T15:37:54.586Z,11.98
2022-11-25T15:40:43.175Z,12.65
2022-11-25T15:43:30.113Z,12.43
2022-11-25T15:46:03.408Z,11.40
2022-11-25T15:48:48.873Z,12.35
2022-11-25T15:51:22.442Z,11.90
2022-11-25T15:53:56.328Z,11.13
2022-11-25T15:58:57.393Z,10.82
2022-11-25T16:01:30.385Z,9.52
2022-11-25T16:04:21.563Z,9.68
2022-11-25T16:06:57.861Z,9.57
2022-11-25T16:09:28.738Z,10.30
2022-11-25T16:12:05.529Z,11.77
2022-11-25T16:14:36.664Z,13.30
2022-11-25T16:17:10.494Z,15.18
2022-11-25T16:19:47.320Z,14.02
2022-11-25T16:22:20.413Z,15.80
2022-11-25T16:25:00.439Z,16.38
2022-11-25T16:27:31.447Z,15.68
2022-11-25T16:30:18.695Z,14.27
2022-11-25T16:32:46.324Z,13.10
2022-11-25T16:35:16.740Z,12.50
2022-11-25T16:37:48.795Z,12.13
2022-11-25T16:40:18.835Z,12.45
2022-11-25T16:42:48.541Z,12.13
2022-11-25T16:45:24.864Z,11.13
2022-11-25T16:47:52.539Z,11.27
2022-11-25T16:50:21.368Z,11.63
2022-11-25T16:52:49.897Z,11.90
2022-11-25T16:55:18.751Z,12.13
2022-11-25T16:57:47.192Z,11.45
2022-11-25T17:00:17.251Z,12.30
2022-11-25T17:02:45.215Z,12.27
2022-11-25T17:05:24.635Z,14.30
2022-11-25T17:07:52.733Z,13.10
2022-11-25T17:10:21.644Z,11.88
2022-11-25T17:12:50.321Z,11.90
2022-11-25T17:15:28.729Z,11.68
2022-11-25T17:17:56.461Z,13.77
2022-11-25T17:20:25.339Z,12.82
2022-11-25T17:22:53.842Z,12.18
2022-11-25T17:25:24.262Z,11.38
2022-11-25T17:27:52.044Z,9.68
2022-11-25T17:30:21.272Z,9.75
2022-11-25T17:32:53.706Z,8.10
2022-11-25T17:35:21.716Z,8.27
2022-11-25T17:37:49.593Z,8.85
2022-11-25T17:40:17.713Z,9.45
2022-11-25T17:42:48.965Z,8.95
2022-11-25T17:45:20.778Z,8.27
2022-11-25T17:47:49.467Z,8.85
2022-11-25T17:50:25.822Z,9.00
2022-11-25T17:52:53.481Z,10.10
2022-11-25T17:55:22.946Z,9.70
2022-11-25T17:57:50.783Z,10.18
2022-11-25T18:00:21.204Z,9.73
2022-11-25T18:02:49.914Z,9.63
2022-11-25T18:05:20.967Z,8.77
2022-11-25T18:07:48.692Z,9.05
2022-11-25T18:10:18.771Z,8.45
2022-11-25T18:12:48.653Z,9.23
2022-11-25T18:15:19.444Z,7.68
2022-11-25T18:17:47.533Z,8.75
2022-11-25T18:20:17.061Z,8.43
2022-11-25T18:22:45.733Z,8.93
2022-11-25T18:25:22.724Z,8.85
2022-11-25T18:27:54.353Z,9.52
2022-11-25T18:30:27.094Z,9.80
2022-11-25T18:32:56.379Z,9.10
2022-11-25T18:35:29.801Z,7.93
2022-11-25T18:38:00.601Z,8.10
2022-11-25T18:40:29.644Z,8.15
2022-11-25T18:43:00.566Z,6.93
2022-11-25T18:45:32.948Z,6.53
2022-11-25T18:48:00.705Z,5.80
2022-11-25T18:50:28.543Z,5.78
2022-11-25T18:52:56.112Z,6.60
2022-11-25T18:55:24.301Z,5.60
2022-11-25T18:57:52.650Z,5.45
2022-11-25T19:00:32.765Z,6.53
2022-11-25T19:03:01.312Z,5.93
2022-11-25T19:05:31.451Z,6.72
2022-11-25T19:07:59.096Z,6.65
2022-11-25T19:10:29.619Z,7.15
2022-11-25T19:13:03.181Z,6.90
2022-11-25T19:15:30.819Z,5.72
2022-11-25T19:18:02.073Z,5.85
2022-11-25T19:20:30.448Z,5.47
2022-11-25T19:23:01.062Z,5.38
2022-11-25T19:25:29.498Z,5.55
2022-11-25T19:28:00.137Z,5.38
2022-11-25T19:30:32.032Z,5.40
2022-11-25T19:33:02.086Z,5.32
2022-11-25T19:35:36.962Z,5.28
2022-11-25T19:38:25.176Z,5.00
2022-11-25T19:45:05.893Z,5.10
2022-11-25T19:47:33.414Z,5.53
2022-11-25T19:50:02.403Z,5.85
2022-11-25T19:52:37.885Z,5.85
2022-11-25T19:55:17.474Z,5.93
2022-11-25T19:57:45.335Z,6.15
2022-11-25T20:00:15.650Z,5.90
2022-11-25T20:02:44.440Z,6.35
2022-11-25T20:05:19.498Z,6.75
2022-11-25T20:07:47.532Z,7.90
2022-11-25T20:10:26.939Z,6.50
2022-11-25T20:12:55.995Z,6.20
2022-11-25T20:15:23.902Z,7.60
2022-11-25T20:17:55.250Z,7.32
2022-11-25T20:20:32.730Z,7.57
2022-11-25T20:23:05.364Z,7.47
2022-11-25T20:25:37.066Z,7.72
2022-11-25T20:28:10.222Z,6.68
2022-11-25T20:30:37.724Z,7.70
2022-11-25T20:33:05.183Z,8.02
2022-11-25T20:35:32.664Z,8.23
2022-11-25T20:38:01.044Z,7.88
2022-11-25T20:40:36.759Z,7.70
2022-11-25T20:43:04.293Z,7.80
2022-11-25T20:45:31.839Z,7.70
2022-11-25T20:47:59.395Z,8.13
2022-11-25T20:50:30.604Z,8.60
2022-11-25T20:52:58.083Z,8.52
2022-11-25T20:55:26.142Z,8.15
2022-11-25T20:57:53.553Z,8.75
2022-11-25T21:00:27.278Z,8.70
2022-11-25T21:02:57.161Z,9.43
2022-11-25T21:05:27.543Z,9.85
2022-11-25T21:07:55.461Z,9.50
2022-11-25T21:10:30.453Z,10.95
2022-11-25T21:12:57.947Z,10.48
2022-11-25T21:15:27.683Z,9.88
2022-11-25T21:17:55.383Z,11.18
2022-11-25T21:20:22.934Z,11.45
2022-11-25T21:22:54.344Z,12.63
2022-11-25T21:25:23.083Z,12.38
2022-11-25T21:27:52.164Z,13.52
2022-11-25T21:30:32.618Z,13.98
2022-11-25T21:33:01.245Z,13.05
2022-11-25T21:35:34.867Z,13.52
2022-11-25T21:38:03.940Z,14.43
2022-11-25T21:40:49.270Z,14.00
2022-11-25T21:43:21.565Z,13.23
2022-11-25T21:45:52.579Z,13.18
2022-11-25T21:48:25.280Z,13.10
2022-11-25T21:50:53.445Z,14.07
2022-11-25T21:53:20.900Z,14.73
2022-11-25T21:55:49.152Z,14.70
2022-11-25T21:58:24.813Z,13.73
2022-11-25T22:00:56.246Z,14.75
2022-11-25T22:03:25.454Z,14.35
2022-11-25T22:05:52.892Z,14.38
2022-11-25T22:08:20.619Z,15.68
2022-11-25T22:10:53.940Z,15.35
2022-11-25T22:13:27.433Z,14.60
2022-11-25T22:15:58.343Z,14.73
2022-11-25T22:18:31.514Z,14.88
2022-11-25T22:20:59.663Z,14.23
2022-11-25T22:23:27.859Z,14.82
2022-11-25T22:25:55.823Z,15.20
2022-11-25T22:28:26.585Z,15.25
2022-11-25T22:30:56.594Z,14.50
2022-11-25T22:33:32.313Z,15.23
2022-11-25T22:36:00.518Z,14.63
2022-11-25T22:38:29.310Z,15.25
2022-11-25T22:41:00.340Z,15.55
2022-11-25T22:43:32.191Z,14.52
2022-11-25T22:45:59.883Z,14.80
2022-11-25T22:48:32.293Z,14.73
2022-11-25T22:50:59.730Z,14.30
2022-11-25T22:53:27.644Z,13.90
2022-11-25T22:55:58.621Z,13.93
2022-11-25T22:58:26.839Z,14.05
2022-11-25T23:00:56.192Z,13.93
2022-11-25T23:03:29.417Z,12.65
2022-11-25T23:05:57.374Z,13.73
2022-11-25T23:08:28.484Z,11.98
2022-11-25T23:10:56.792Z,12.13
2022-11-25T23:13:24.869Z,11.38
2022-11-25T23:16:00.392Z,11.10
2022-11-25T23:18:38.636Z,12.02
2022-11-25T23:21:14.560Z,10.43
2022-11-25T23:23:42.054Z,10.85
2022-11-25T23:26:11.276Z,10.68
2022-11-25T23:28:38.681Z,10.15
2022-11-25T23:31:07.154Z,10.52
2022-11-25T23:33:46.523Z,10.20
2022-11-25T23:36:28.577Z,10.50
2022-11-25T23:39:02.311Z,12.13
2022-11-25T23:44:13.987Z,12.95
2022-11-25T23:46:43.072Z,13.07
2022-11-25T23:49:21.662Z,12.65
2022-11-25T23:51:49.385Z,12.23
2022-11-25T23:54:21.114Z,12.23
2022-11-25T23:56:48.709Z,11.68
2022-11-25T23:59:17.434Z,11.73
